createdAt,value
2019-02-09T00:00:55.373Z,995.3
2019-02-09T00:01:56.767Z,995.3
2019-02-09T00:02:58.303Z,995.3
2019-02-09T00:03:59.704Z,995.3
2019-02-09T00:05:01.090Z,995.3
2019-02-09T00:06:02.623Z,995.4
2019-02-09T00:07:04.041Z,995.3
2019-02-09T00:08:05.553Z,995.3
2019-02-09T00:09:07.711Z,995.4
2019-02-09T00:10:09.113Z,995.3
2019-02-09T00:11:10.648Z,995.3
2019-02-09T00:12:12.047Z,995.3
2019-02-09T00:13:13.441Z,995.2
2019-02-09T00:14:14.968Z,995.2
2019-02-09T00:15:16.362Z,995.3
2019-02-09T00:16:17.771Z,995.2
2019-02-09T00:17:19.291Z,995.2
2019-02-09T00:18:20.694Z,995.2
2019-02-09T00:19:22.084Z,995.3
2019-02-09T00:20:23.989Z,995.3
2019-02-09T00:21:25.397Z,995.3
2019-02-09T00:22:26.793Z,995.2
2019-02-09T00:23:28.339Z,995.2
2019-02-09T00:24:29.754Z,995.2
2019-02-09T00:25:31.141Z,995.1
2019-02-09T00:26:32.659Z,995.2
2019-02-09T00:27:34.051Z,995.3
2019-02-09T00:28:35.544Z,995.2
2019-02-09T00:29:36.973Z,995.2
2019-02-09T00:30:38.334Z,995.1
2019-02-09T00:31:39.882Z,995.2
2019-02-09T00:32:41.363Z,995.1
2019-02-09T00:33:42.748Z,995.2
2019-02-09T00:34:44.400Z,995.2
2019-02-09T00:35:45.828Z,995.2
2019-02-09T00:36:47.271Z,995.2
2019-02-09T00:37:48.690Z,995.1
2019-02-09T00:38:50.151Z,995.2
2019-02-09T00:39:51.584Z,995.1
2019-02-09T00:40:52.941Z,995.1
2019-02-09T00:41:54.475Z,995.2
2019-02-09T00:42:55.866Z,995.1
2019-02-09T00:43:57.262Z,995.2
2019-02-09T00:44:58.795Z,995.1
2019-02-09T00:46:00.192Z,995.1
2019-02-09T00:47:01.585Z,995.1
2019-02-09T00:48:03.117Z,995.2
2019-02-09T00:49:04.510Z,995.1
2019-02-09T00:50:05.926Z,995.1
2019-02-09T00:51:07.435Z,995.0
2019-02-09T00:52:08.831Z,995.0
2019-02-09T00:53:10.232Z,995.1
2019-02-09T00:54:11.757Z,995.2
2019-02-09T00:55:13.533Z,995.0
2019-02-09T00:56:14.932Z,994.8
2019-02-09T00:57:16.495Z,994.9
2019-02-09T00:58:17.884Z,994.7
2019-02-09T00:59:19.282Z,994.7
2019-02-09T01:00:20.808Z,994.6
2019-02-09T01:01:22.207Z,994.6
2019-02-09T01:02:23.690Z,994.6
2019-02-09T01:03:26.256Z,994.5
2019-02-09T01:04:28.210Z,994.5
2019-02-09T01:05:29.961Z,994.6
2019-02-09T01:06:31.356Z,994.6
2019-02-09T01:07:32.948Z,994.6
2019-02-09T01:08:34.338Z,994.6
2019-02-09T01:09:35.734Z,994.6
2019-02-09T01:10:37.263Z,994.5
2019-02-09T01:11:39.081Z,994.5
2019-02-09T01:12:40.553Z,994.4
2019-02-09T01:13:41.949Z,994.4
2019-02-09T01:14:43.460Z,994.5
2019-02-09T01:15:44.849Z,994.4
2019-02-09T01:16:46.239Z,994.4
2019-02-09T01:17:47.772Z,994.4
2019-02-09T01:18:49.165Z,994.4
2019-02-09T01:19:50.557Z,994.4
2019-02-09T01:20:52.080Z,994.4
2019-02-09T01:21:53.478Z,994.5
2019-02-09T01:22:54.872Z,994.5
2019-02-09T01:23:56.398Z,994.4
2019-02-09T01:24:57.792Z,994.3
2019-02-09T01:25:59.188Z,994.2
2019-02-09T01:27:03.025Z,994.3
2019-02-09T01:28:04.725Z,994.3
2019-02-09T01:29:06.118Z,994.3
2019-02-09T01:30:07.701Z,994.3
2019-02-09T01:31:09.099Z,994.3
2019-02-09T01:32:10.493Z,994.3
2019-02-09T01:33:12.026Z,994.3
2019-02-09T01:34:13.423Z,994.4
2019-02-09T01:35:14.907Z,994.5
2019-02-09T01:36:16.348Z,994.4
2019-02-09T01:37:17.697Z,994.3
2019-02-09T01:38:19.228Z,994.3
2019-02-09T01:39:20.620Z,994.3
2019-02-09T01:40:22.015Z,994.3
2019-02-09T01:41:23.549Z,994.3
2019-02-09T01:42:24.944Z,994.4
2019-02-09T01:43:26.431Z,994.4
2019-02-09T01:44:27.826Z,994.4
2019-02-09T01:45:29.317Z,994.3
2019-02-09T01:46:30.706Z,994.3
2019-02-09T01:47:32.203Z,994.4
2019-02-09T01:48:33.596Z,994.4
2019-02-09T01:49:35.465Z,994.4
2019-02-09T01:50:36.857Z,994.3
2019-02-09T01:51:38.371Z,994.4
2019-02-09T01:52:39.763Z,994.4
2019-02-09T01:53:41.247Z,994.4
2019-02-09T01:54:43.013Z,994.3
2019-02-09T01:55:44.533Z,994.2
2019-02-09T01:56:45.943Z,994.3
2019-02-09T01:57:47.337Z,994.2
2019-02-09T01:58:48.861Z,994.3
2019-02-09T01:59:50.254Z,994.3
2019-02-09T02:00:52.044Z,994.3
2019-02-09T02:01:53.594Z,994.4
2019-02-09T02:02:54.982Z,994.3
2019-02-09T02:03:56.374Z,994.3
2019-02-09T02:04:57.913Z,994.3
2019-02-09T02:05:59.304Z,994.3
2019-02-09T02:07:00.702Z,994.4
2019-02-09T02:08:02.233Z,994.5
2019-02-09T02:09:03.998Z,994.3
2019-02-09T02:10:05.781Z,994.2
2019-02-09T02:11:07.669Z,994.1
2019-02-09T02:12:09.775Z,994.3
2019-02-09T02:13:11.172Z,994.1
2019-02-09T02:14:12.718Z,994.2
2019-02-09T02:15:17.167Z,994.3
2019-02-09T02:16:18.584Z,994.2
2019-02-09T02:17:22.376Z,994.1
2019-02-09T02:18:23.815Z,994.1
2019-02-09T02:19:25.534Z,994.1
2019-02-09T02:20:27.159Z,994.1
2019-02-09T02:21:28.552Z,994.2
2019-02-09T02:22:30.722Z,994.1
2019-02-09T02:23:32.664Z,994.2
2019-02-09T02:24:34.041Z,994.0
2019-02-09T02:25:35.442Z,994.1
2019-02-09T02:26:37.006Z,994.0
2019-02-09T02:27:38.367Z,994.1
2019-02-09T02:28:39.849Z,994.1
2019-02-09T02:29:41.267Z,994.2
2019-02-09T02:30:42.747Z,994.0
2019-02-09T02:31:44.147Z,994.1
2019-02-09T02:32:45.577Z,994.0
2019-02-09T02:33:47.061Z,994.0
2019-02-09T02:34:48.469Z,994.0
2019-02-09T02:35:49.870Z,994.1
2019-02-09T02:36:51.462Z,994.0
2019-02-09T02:37:52.855Z,994.1
2019-02-09T02:38:54.465Z,994.1
2019-02-09T02:39:55.882Z,994.1
2019-02-09T02:40:57.341Z,994.0
2019-02-09T02:41:58.751Z,994.0
2019-02-09T02:43:00.150Z,994.0
2019-02-09T02:44:01.663Z,994.0
2019-02-09T02:45:03.065Z,993.9
2019-02-09T02:46:04.461Z,994.0
2019-02-09T02:47:06.027Z,993.9
2019-02-09T02:48:07.431Z,993.9
2019-02-09T02:49:08.829Z,993.9
2019-02-09T02:50:10.302Z,994.0
2019-02-09T02:51:11.697Z,994.0
2019-02-09T02:52:13.094Z,994.0
2019-02-09T02:53:16.356Z,994.0
2019-02-09T02:54:15.978Z,993.9
2019-02-09T02:55:17.503Z,993.9
2019-02-09T02:56:18.898Z,993.8
2019-02-09T02:57:20.290Z,993.9
2019-02-09T02:58:21.829Z,993.8
2019-02-09T02:59:23.220Z,993.8
2019-02-09T03:00:31.825Z,993.7
2019-02-09T03:01:26.146Z,993.7
2019-02-09T03:02:27.547Z,993.8
2019-02-09T03:03:29.231Z,993.8
2019-02-09T03:04:30.623Z,993.8
2019-02-09T03:05:32.112Z,993.8
2019-02-09T03:06:33.512Z,993.8
2019-02-09T03:07:34.994Z,993.7
2019-02-09T03:08:36.394Z,993.6
2019-02-09T03:09:37.873Z,993.7
2019-02-09T03:10:39.280Z,993.7
2019-02-09T03:11:40.756Z,993.7
2019-02-09T03:12:42.156Z,993.7
2019-02-09T03:13:43.638Z,993.8
2019-02-09T03:14:45.035Z,993.8
2019-02-09T03:15:46.901Z,993.8
2019-02-09T03:16:48.299Z,993.8
2019-02-09T03:17:49.696Z,993.8
2019-02-09T03:18:51.250Z,993.8
2019-02-09T03:19:53.046Z,993.8
2019-02-09T03:20:54.462Z,993.9
2019-02-09T03:21:55.986Z,993.9
2019-02-09T03:22:57.401Z,993.9
2019-02-09T03:23:58.799Z,993.8
2019-02-09T03:25:00.320Z,993.8
2019-02-09T03:26:01.693Z,993.9
2019-02-09T03:27:03.086Z,993.9
2019-02-09T03:28:04.622Z,993.9
2019-02-09T03:29:06.018Z,993.9
2019-02-09T03:30:07.412Z,993.9
2019-02-09T03:31:08.939Z,994.0
2019-02-09T03:32:11.010Z,994.0
2019-02-09T03:33:11.711Z,994.1
2019-02-09T03:34:13.264Z,994.0
2019-02-09T03:35:14.657Z,994.0
2019-02-09T03:36:16.066Z,994.0
2019-02-09T03:37:17.586Z,994.0
2019-02-09T03:38:18.984Z,994.0
2019-02-09T03:39:20.375Z,993.9
2019-02-09T03:40:21.903Z,994.0
2019-02-09T03:41:23.297Z,993.9
2019-02-09T03:42:24.691Z,994.1
2019-02-09T03:43:27.251Z,994.2
2019-02-09T03:44:28.647Z,994.0
2019-02-09T03:45:30.131Z,994.1
2019-02-09T03:46:31.526Z,994.1
2019-02-09T03:47:33.022Z,994.2
2019-02-09T03:48:34.818Z,994.1
2019-02-09T03:49:36.303Z,994.1
2019-02-09T03:50:37.702Z,994.2
2019-02-09T03:51:39.185Z,994.2
2019-02-09T03:52:40.581Z,994.2
2019-02-09T03:53:41.983Z,994.2
2019-02-09T03:54:43.506Z,994.3
2019-02-09T03:55:44.911Z,994.2
2019-02-09T03:56:46.304Z,994.2
2019-02-09T03:57:47.829Z,994.2
2019-02-09T03:58:49.268Z,994.2
2019-02-09T03:59:50.652Z,994.3
2019-02-09T04:00:55.527Z,994.2
2019-02-09T04:01:53.614Z,994.2
2019-02-09T04:02:54.871Z,994.3
2019-02-09T04:03:56.472Z,994.3
2019-02-09T04:04:57.869Z,994.3
2019-02-09T04:05:59.350Z,994.3
2019-02-09T04:07:00.749Z,994.3
2019-02-09T04:08:02.239Z,994.3
2019-02-09T04:09:03.628Z,994.3
2019-02-09T04:10:05.016Z,994.3
2019-02-09T04:11:06.554Z,994.3
2019-02-09T04:12:07.955Z,994.3
2019-02-09T04:13:09.351Z,994.3
2019-02-09T04:14:10.878Z,994.3
2019-02-09T04:15:12.277Z,994.3
2019-02-09T04:16:13.656Z,994.3
2019-02-09T04:17:15.198Z,994.3
2019-02-09T04:18:17.016Z,994.4
2019-02-09T04:19:18.403Z,994.4
2019-02-09T04:20:19.930Z,994.4
2019-02-09T04:21:21.338Z,994.4
2019-02-09T04:22:22.733Z,994.4
2019-02-09T04:23:24.248Z,994.4
2019-02-09T04:24:25.643Z,994.4
2019-02-09T04:25:27.133Z,994.5
2019-02-09T04:26:28.530Z,994.4
2019-02-09T04:27:30.007Z,994.5
2019-02-09T04:28:31.409Z,994.5
2019-02-09T04:29:32.806Z,994.5
2019-02-09T04:30:34.333Z,994.5
2019-02-09T04:31:35.727Z,994.6
2019-02-09T04:32:37.117Z,994.5
2019-02-09T04:33:38.652Z,994.5
2019-02-09T04:34:40.434Z,994.6
2019-02-09T04:35:41.946Z,994.6
2019-02-09T04:36:43.715Z,994.6
2019-02-09T04:37:45.230Z,994.6
2019-02-09T04:38:46.628Z,994.6
2019-02-09T04:39:48.117Z,994.6
2019-02-09T04:40:49.536Z,994.6
2019-02-09T04:41:51.002Z,994.6
2019-02-09T04:42:52.404Z,994.6
2019-02-09T04:43:53.793Z,994.5
2019-02-09T04:44:55.322Z,994.6
2019-02-09T04:45:56.714Z,994.7
2019-02-09T04:46:58.109Z,994.7
2019-02-09T04:47:59.638Z,994.6
2019-02-09T04:49:01.033Z,994.7
2019-02-09T04:50:02.421Z,994.7
2019-02-09T04:51:03.963Z,994.8
2019-02-09T04:52:06.118Z,994.8
2019-02-09T04:53:07.530Z,994.9
2019-02-09T04:54:09.100Z,994.7
2019-02-09T04:55:10.497Z,994.6
2019-02-09T04:56:11.851Z,994.7
2019-02-09T04:57:13.808Z,994.8
2019-02-09T04:58:15.197Z,994.8
2019-02-09T04:59:16.590Z,994.9
2019-02-09T05:00:18.155Z,995.0
2019-02-09T05:01:19.547Z,994.9
2019-02-09T05:02:21.031Z,994.9
2019-02-09T05:03:22.472Z,995.1
2019-02-09T05:04:23.835Z,995.0
2019-02-09T05:05:25.354Z,995.0
2019-02-09T05:06:26.749Z,995.0
2019-02-09T05:07:28.142Z,995.0
2019-02-09T05:08:29.674Z,995.0
2019-02-09T05:09:31.072Z,994.9
2019-02-09T05:10:32.466Z,994.9
2019-02-09T05:11:33.995Z,995.0
2019-02-09T05:12:35.393Z,994.9
2019-02-09T05:13:36.781Z,995.0
2019-02-09T05:14:38.318Z,995.0
2019-02-09T05:15:39.710Z,994.9
2019-02-09T05:16:41.198Z,994.8
2019-02-09T05:17:42.597Z,994.9
2019-02-09T05:18:43.987Z,995.0
2019-02-09T05:19:45.521Z,994.9
2019-02-09T05:20:46.915Z,994.9
2019-02-09T05:21:48.303Z,995.0
2019-02-09T05:22:49.854Z,995.0
2019-02-09T05:23:51.238Z,995.0
2019-02-09T05:24:52.633Z,995.0
2019-02-09T05:25:54.569Z,995.0
2019-02-09T05:26:55.966Z,994.9
2019-02-09T05:27:57.451Z,995.0
2019-02-09T05:28:58.849Z,995.0
2019-02-09T05:30:00.335Z,995.0
2019-02-09T05:31:01.731Z,995.1
2019-02-09T05:32:03.219Z,995.0
2019-02-09T05:33:04.614Z,995.1
2019-02-09T05:34:06.002Z,995.1
2019-02-09T05:35:07.560Z,995.2
2019-02-09T05:36:08.958Z,995.1
2019-02-09T05:37:10.347Z,995.1
2019-02-09T05:38:11.858Z,995.2
2019-02-09T05:39:13.254Z,995.2
2019-02-09T05:40:14.651Z,995.2
2019-02-09T05:41:16.181Z,995.2
2019-02-09T05:42:17.572Z,995.3
2019-02-09T05:43:18.967Z,995.2
2019-02-09T05:44:20.506Z,995.3
2019-02-09T05:45:21.897Z,995.3
2019-02-09T05:46:23.384Z,995.4
2019-02-09T05:47:24.776Z,995.3
2019-02-09T05:48:26.265Z,995.4
2019-02-09T05:49:27.682Z,995.4
2019-02-09T05:50:29.144Z,995.4
2019-02-09T05:51:30.536Z,995.4
2019-02-09T05:52:32.026Z,995.4
2019-02-09T05:53:33.417Z,995.4
2019-02-09T05:54:34.905Z,995.4
2019-02-09T05:55:36.303Z,995.5
2019-02-09T05:56:37.789Z,995.5
2019-02-09T05:57:39.184Z,995.6
2019-02-09T05:58:40.672Z,995.5
2019-02-09T05:59:42.066Z,995.6
2019-02-09T06:00:43.634Z,995.6
2019-02-09T06:01:45.033Z,995.6
2019-02-09T06:02:46.639Z,995.6
2019-02-09T06:03:48.038Z,995.5
2019-02-09T06:04:49.530Z,995.6
2019-02-09T06:05:50.942Z,995.7
2019-02-09T06:06:52.386Z,995.7
2019-02-09T06:07:53.780Z,995.7
2019-02-09T06:08:55.281Z,995.7
2019-02-09T06:09:57.080Z,995.8
2019-02-09T06:10:58.482Z,995.7
2019-02-09T06:12:00.016Z,995.8
2019-02-09T06:13:01.418Z,995.7
2019-02-09T06:14:02.810Z,995.8
2019-02-09T06:15:04.402Z,995.7
2019-02-09T06:16:05.760Z,995.7
2019-02-09T06:17:07.236Z,995.8
2019-02-09T06:18:08.643Z,995.7
2019-02-09T06:19:10.107Z,995.7
2019-02-09T06:20:11.505Z,995.8
2019-02-09T06:21:12.973Z,995.7
2019-02-09T06:22:14.368Z,995.8
2019-02-09T06:23:15.855Z,995.9
2019-02-09T06:24:17.249Z,995.8
2019-02-09T06:25:18.736Z,995.9
2019-02-09T06:26:20.130Z,995.8
2019-02-09T06:27:21.616Z,995.9
2019-02-09T06:28:23.010Z,995.9
2019-02-09T06:29:24.879Z,995.9
2019-02-09T06:30:26.283Z,996.0
2019-02-09T06:31:27.788Z,996.0
2019-02-09T06:32:29.183Z,995.8
2019-02-09T06:33:30.681Z,995.9
2019-02-09T06:34:32.067Z,995.9
2019-02-09T06:35:33.490Z,995.9
2019-02-09T06:36:34.989Z,995.9
2019-02-09T06:37:36.428Z,995.9
2019-02-09T06:38:37.785Z,995.9
2019-02-09T06:39:39.315Z,995.9
2019-02-09T06:40:40.706Z,996.1
2019-02-09T06:41:42.099Z,996.0
2019-02-09T06:42:44.010Z,996.1
2019-02-09T06:43:45.805Z,996.2
2019-02-09T06:44:47.202Z,996.0
2019-02-09T06:45:48.772Z,996.1
2019-02-09T06:46:50.166Z,996.1
2019-02-09T06:47:51.653Z,996.1
2019-02-09T06:48:53.048Z,996.1
2019-02-09T06:49:54.536Z,996.1
2019-02-09T06:50:55.929Z,996.1
2019-02-09T06:51:57.416Z,996.1
2019-02-09T06:52:59.214Z,996.0
2019-02-09T06:54:00.707Z,996.0
2019-02-09T06:55:02.107Z,996.1
2019-02-09T06:56:03.504Z,996.1
2019-02-09T06:57:05.027Z,996.1
2019-02-09T06:58:06.427Z,996.2
2019-02-09T06:59:07.817Z,996.1
2019-02-09T07:00:09.350Z,996.1
2019-02-09T07:01:10.741Z,996.3
2019-02-09T07:02:12.134Z,996.2
2019-02-09T07:03:13.670Z,996.3
2019-02-09T07:04:15.063Z,996.3
2019-02-09T07:05:16.457Z,996.3
2019-02-09T07:06:17.992Z,996.4
2019-02-09T07:07:19.388Z,996.3
2019-02-09T07:08:21.255Z,996.3
2019-02-09T07:09:22.653Z,996.4
2019-02-09T07:10:24.073Z,996.4
2019-02-09T07:11:25.605Z,996.4
2019-02-09T07:12:27.307Z,996.4
2019-02-09T07:13:28.707Z,996.6
2019-02-09T07:14:30.131Z,996.4
2019-02-09T07:15:31.914Z,996.5
2019-02-09T07:16:33.421Z,996.5
2019-02-09T07:17:34.815Z,996.6
2019-02-09T07:18:36.301Z,996.5
2019-02-09T07:19:37.698Z,996.4
2019-02-09T07:20:39.184Z,996.5
2019-02-09T07:21:40.586Z,996.4
2019-02-09T07:22:42.064Z,996.7
2019-02-09T07:23:43.457Z,996.5
2019-02-09T07:24:44.946Z,996.6
2019-02-09T07:25:46.346Z,996.7
2019-02-09T07:26:48.206Z,996.5
2019-02-09T07:27:49.605Z,996.7
2019-02-09T07:28:51.120Z,996.6
2019-02-09T07:29:52.517Z,996.6
2019-02-09T07:30:53.912Z,996.6
2019-02-09T07:31:56.764Z,996.7
2019-02-09T07:32:58.587Z,996.8
2019-02-09T07:33:59.979Z,996.9
2019-02-09T07:35:01.399Z,996.9
2019-02-09T07:36:03.112Z,996.9
2019-02-09T07:37:04.691Z,996.9
2019-02-09T07:38:06.087Z,997.0
2019-02-09T07:39:07.890Z,996.9
2019-02-09T07:40:09.272Z,997.0
2019-02-09T07:41:10.670Z,997.0
2019-02-09T07:42:12.199Z,997.0
2019-02-09T07:43:13.600Z,997.0
2019-02-09T07:44:14.997Z,997.0
2019-02-09T07:45:16.517Z,997.0
2019-02-09T07:46:17.917Z,997.2
2019-02-09T07:47:19.316Z,997.0
2019-02-09T07:48:20.842Z,997.1
2019-02-09T07:49:22.240Z,997.0
2019-02-09T07:50:23.677Z,997.0
2019-02-09T07:51:25.169Z,997.1
2019-02-09T07:52:26.561Z,997.1
2019-02-09T07:53:27.956Z,997.0
2019-02-09T07:54:29.485Z,997.0
2019-02-09T07:55:30.885Z,997.1
2019-02-09T07:56:32.285Z,997.2
2019-02-09T07:57:33.804Z,997.1
2019-02-09T07:58:35.201Z,997.2
2019-02-09T07:59:36.597Z,997.2
2019-02-09T08:00:38.127Z,997.2
2019-02-09T08:01:39.535Z,997.3
2019-02-09T08:02:41.213Z,997.3
2019-02-09T08:03:42.614Z,997.2
2019-02-09T08:04:44.298Z,997.3
2019-02-09T08:05:45.695Z,997.3
2019-02-09T08:06:47.094Z,997.3
2019-02-09T08:07:48.620Z,997.3
2019-02-09T08:08:50.065Z,997.3
2019-02-09T08:09:51.415Z,997.4
2019-02-09T08:10:52.943Z,997.4
2019-02-09T08:11:54.341Z,997.4
2019-02-09T08:12:55.735Z,997.4
2019-02-09T08:13:57.261Z,997.4
2019-02-09T08:14:58.662Z,997.4
2019-02-09T08:16:00.056Z,997.5
2019-02-09T08:17:01.584Z,997.6
2019-02-09T08:18:02.983Z,997.5
2019-02-09T08:19:04.974Z,997.6
2019-02-09T08:20:06.369Z,997.6
2019-02-09T08:21:07.960Z,997.5
2019-02-09T08:22:09.355Z,997.6
2019-02-09T08:23:10.760Z,997.5
2019-02-09T08:24:12.290Z,997.6
2019-02-09T08:25:13.683Z,997.7
2019-02-09T08:26:15.079Z,997.6
2019-02-09T08:27:23.292Z,997.7
2019-02-09T08:28:18.004Z,997.7
2019-02-09T08:29:19.398Z,997.8
2019-02-09T08:30:20.793Z,997.7
2019-02-09T08:31:22.193Z,997.7
2019-02-09T08:32:23.810Z,997.8
2019-02-09T08:33:25.209Z,997.8
2019-02-09T08:34:26.892Z,997.7
2019-02-09T08:35:28.288Z,997.7
2019-02-09T08:36:29.977Z,997.8
2019-02-09T08:37:31.376Z,997.8
2019-02-09T08:38:33.062Z,997.8
2019-02-09T08:39:34.461Z,997.7
2019-02-09T08:40:36.148Z,997.7
2019-02-09T08:41:37.546Z,997.8
2019-02-09T08:42:39.933Z,997.8
2019-02-09T08:43:40.470Z,997.8
2019-02-09T08:44:41.872Z,997.9
2019-02-09T08:45:43.271Z,997.9
2019-02-09T08:46:44.793Z,997.8
2019-02-09T08:47:46.192Z,997.5
2019-02-09T08:48:47.601Z,997.8
2019-02-09T08:49:49.175Z,997.8
2019-02-09T08:50:50.568Z,997.7
2019-02-09T08:51:51.967Z,997.7
2019-02-09T08:52:53.651Z,997.8
2019-02-09T08:53:55.059Z,997.8
2019-02-09T08:54:56.454Z,997.8
2019-02-09T08:55:58.164Z,997.8
2019-02-09T08:56:59.583Z,997.7
2019-02-09T08:58:01.002Z,997.7
2019-02-09T08:59:03.071Z,997.8
2019-02-09T09:00:05.604Z,997.7
2019-02-09T09:01:05.835Z,997.8
2019-02-09T09:02:07.423Z,997.8
2019-02-09T09:03:08.821Z,997.8
2019-02-09T09:04:10.505Z,997.7
2019-02-09T09:05:11.905Z,997.8
2019-02-09T09:06:13.972Z,997.9
2019-02-09T09:07:15.377Z,997.8
2019-02-09T09:08:17.088Z,997.7
2019-02-09T09:09:18.487Z,997.9
2019-02-09T09:10:20.178Z,997.8
2019-02-09T09:11:21.570Z,997.9
2019-02-09T09:12:23.260Z,997.9
2019-02-09T09:13:24.672Z,997.8
2019-02-09T09:14:26.347Z,997.7
2019-02-09T09:15:27.746Z,997.8
2019-02-09T09:16:29.433Z,997.9
2019-02-09T09:17:30.829Z,997.7
2019-02-09T09:18:32.518Z,997.7
2019-02-09T09:19:33.919Z,997.7
2019-02-09T09:20:35.605Z,997.6
2019-02-09T09:21:37.007Z,997.7
2019-02-09T09:22:38.689Z,997.8
2019-02-09T09:23:40.093Z,997.9
2019-02-09T09:24:41.778Z,997.9
2019-02-09T09:25:43.173Z,998.0
2019-02-09T09:26:44.866Z,997.8
2019-02-09T09:27:46.263Z,997.7
2019-02-09T09:28:47.743Z,997.8
2019-02-09T09:29:49.146Z,997.8
2019-02-09T09:30:50.830Z,997.9
2019-02-09T09:31:52.230Z,998.0
2019-02-09T09:32:53.632Z,998.0
2019-02-09T09:33:55.147Z,998.0
2019-02-09T09:34:56.555Z,997.9
2019-02-09T09:35:57.956Z,998.0
2019-02-09T09:36:59.517Z,997.9
2019-02-09T09:38:00.877Z,998.1
2019-02-09T09:39:02.275Z,998.0
2019-02-09T09:40:03.792Z,998.1
2019-02-09T09:41:05.199Z,998.0
2019-02-09T09:42:06.983Z,998.2
2019-02-09T09:43:08.528Z,998.0
2019-02-09T09:44:09.948Z,998.0
2019-02-09T09:45:11.615Z,998.1
2019-02-09T09:46:13.010Z,998.1
2019-02-09T09:47:14.411Z,998.1
2019-02-09T09:48:16.955Z,998.1
2019-02-09T09:49:18.544Z,998.1
2019-02-09T09:50:19.943Z,998.1
2019-02-09T09:51:21.489Z,998.1
2019-02-09T09:52:23.278Z,998.1
2019-02-09T09:53:24.909Z,998.1
2019-02-09T09:54:26.627Z,998.2
2019-02-09T09:55:28.417Z,998.2
2019-02-09T09:56:29.833Z,998.1
2019-02-09T09:57:31.354Z,998.1
2019-02-09T09:58:32.755Z,998.2
2019-02-09T09:59:34.444Z,998.2
2019-02-09T10:00:35.845Z,998.1
2019-02-09T10:01:37.525Z,998.2
2019-02-09T10:02:38.925Z,998.2
2019-02-09T10:03:40.326Z,998.3
2019-02-09T10:04:41.848Z,998.3
2019-02-09T10:05:43.246Z,998.2
2019-02-09T10:06:44.649Z,998.2
2019-02-09T10:07:46.192Z,998.3
2019-02-09T10:08:47.716Z,998.2
2019-02-09T10:09:49.304Z,998.1
2019-02-09T10:10:50.907Z,998.1
2019-02-09T10:11:52.310Z,998.2
2019-02-09T10:12:55.262Z,998.3
2019-02-09T10:13:57.240Z,998.2
2019-02-09T10:14:58.607Z,998.2
2019-02-09T10:16:00.156Z,998.3
2019-02-09T10:17:01.597Z,998.2
2019-02-09T10:18:03.367Z,998.3
2019-02-09T10:19:04.850Z,998.3
2019-02-09T10:20:06.533Z,998.3
2019-02-09T10:21:07.959Z,998.3
2019-02-09T10:22:09.615Z,998.3
2019-02-09T10:23:11.016Z,998.4
2019-02-09T10:24:12.418Z,998.3
2019-02-09T10:25:13.940Z,998.4
2019-02-09T10:26:15.340Z,998.4
2019-02-09T10:27:16.744Z,998.4
2019-02-09T10:28:18.461Z,998.4
2019-02-09T10:29:19.864Z,998.4
2019-02-09T10:30:21.596Z,998.3
2019-02-09T10:31:23.366Z,998.3
2019-02-09T10:32:24.771Z,998.3
2019-02-09T10:33:26.175Z,998.3
2019-02-09T10:34:27.719Z,998.2
2019-02-09T10:35:29.133Z,998.2
2019-02-09T10:36:30.537Z,998.3
2019-02-09T10:37:32.254Z,998.1
2019-02-09T10:38:33.648Z,998.3
2019-02-09T10:39:35.053Z,998.3
2019-02-09T10:40:36.777Z,998.3
2019-02-09T10:41:38.184Z,998.2
2019-02-09T10:42:39.590Z,998.3
2019-02-09T10:43:41.297Z,998.2
2019-02-09T10:44:42.695Z,998.3
2019-02-09T10:45:45.062Z,998.3
2019-02-09T10:46:46.642Z,998.3
2019-02-09T10:47:48.048Z,998.3
2019-02-09T10:48:49.456Z,998.3
2019-02-09T10:49:51.169Z,998.3
2019-02-09T10:50:52.593Z,998.4
2019-02-09T10:51:53.992Z,998.4
2019-02-09T10:52:55.744Z,998.4
2019-02-09T10:53:57.159Z,998.3
2019-02-09T10:54:58.783Z,998.5
2019-02-09T10:56:00.189Z,998.5
2019-02-09T10:57:01.898Z,998.4
2019-02-09T10:58:03.325Z,998.5
2019-02-09T10:59:04.726Z,998.6
2019-02-09T11:00:06.482Z,998.5
2019-02-09T11:01:07.897Z,998.6
2019-02-09T11:02:09.307Z,998.5
2019-02-09T11:03:10.939Z,998.6
2019-02-09T11:04:12.347Z,998.5
2019-02-09T11:05:15.049Z,998.5
2019-02-09T11:06:16.443Z,998.3
2019-02-09T11:07:18.113Z,998.3
2019-02-09T11:08:19.507Z,998.4
2019-02-09T11:09:20.909Z,998.3
2019-02-09T11:10:22.433Z,998.4
2019-02-09T11:11:23.840Z,998.5
2019-02-09T11:12:25.233Z,998.5
2019-02-09T11:13:26.757Z,998.6
2019-02-09T11:14:28.153Z,998.6
2019-02-09T11:15:29.838Z,998.6
2019-02-09T11:16:31.495Z,998.5
2019-02-09T11:17:33.142Z,998.6
2019-02-09T11:18:34.538Z,998.4
2019-02-09T11:19:36.216Z,998.6
2019-02-09T11:20:37.617Z,998.5
2019-02-09T11:21:39.309Z,998.6
2019-02-09T11:22:40.710Z,998.6
2019-02-09T11:23:42.117Z,998.6
2019-02-09T11:24:43.840Z,998.6
2019-02-09T11:25:45.245Z,998.5
2019-02-09T11:26:46.645Z,998.6
2019-02-09T11:27:48.354Z,998.3
2019-02-09T11:28:49.754Z,998.5
2019-02-09T11:29:51.444Z,998.6
2019-02-09T11:30:52.848Z,998.4
2019-02-09T11:31:54.525Z,998.4
2019-02-09T11:33:01.541Z,998.6
2019-02-09T11:33:57.294Z,998.6
2019-02-09T11:34:58.849Z,998.5
2019-02-09T11:36:00.241Z,998.5
2019-02-09T11:37:01.645Z,998.4
2019-02-09T11:38:03.168Z,998.5
2019-02-09T11:39:04.581Z,998.4
2019-02-09T11:40:05.976Z,998.4
2019-02-09T11:41:07.496Z,998.5
2019-02-09T11:42:08.905Z,998.4
2019-02-09T11:43:10.311Z,998.4
2019-02-09T11:44:12.463Z,998.5
2019-02-09T11:45:13.866Z,998.5
2019-02-09T11:46:15.511Z,998.5
2019-02-09T11:47:16.920Z,998.5
2019-02-09T11:48:18.314Z,998.4
2019-02-09T11:49:19.835Z,998.4
2019-02-09T11:50:21.264Z,998.3
2019-02-09T11:51:22.666Z,998.4
2019-02-09T11:52:25.041Z,998.3
2019-02-09T11:53:25.722Z,998.4
2019-02-09T11:54:27.124Z,998.4
2019-02-09T11:55:28.682Z,998.3
2019-02-09T11:56:30.083Z,998.3
2019-02-09T11:57:31.482Z,998.3
2019-02-09T11:58:33.003Z,998.3
2019-02-09T11:59:34.416Z,998.2
2019-02-09T12:00:36.079Z,998.3
2019-02-09T12:01:37.489Z,998.3
2019-02-09T12:02:39.176Z,998.3
2019-02-09T12:03:40.575Z,998.2
2019-02-09T12:04:42.259Z,998.2
2019-02-09T12:05:43.669Z,998.2
2019-02-09T12:06:45.346Z,998.3
2019-02-09T12:07:46.752Z,998.4
2019-02-09T12:08:48.343Z,998.5
2019-02-09T12:09:49.740Z,998.3
2019-02-09T12:10:51.307Z,998.6
2019-02-09T12:11:52.706Z,998.5
2019-02-09T12:12:54.399Z,998.5
2019-02-09T12:13:55.797Z,998.4
2019-02-09T12:14:57.197Z,998.4
2019-02-09T12:15:58.723Z,998.6
2019-02-09T12:17:00.115Z,998.3
2019-02-09T12:18:01.646Z,998.7
2019-02-09T12:19:03.249Z,998.5
2019-02-09T12:20:04.654Z,998.6
2019-02-09T12:21:06.332Z,998.6
2019-02-09T12:22:07.732Z,998.5
2019-02-09T12:23:10.641Z,998.5
2019-02-09T12:24:12.153Z,998.6
2019-02-09T12:25:13.488Z,998.4
2019-02-09T12:26:16.197Z,998.5
2019-02-09T12:27:17.596Z,998.8
2019-02-09T12:28:19.377Z,998.8
2019-02-09T12:29:20.944Z,998.7
2019-02-09T12:30:22.791Z,998.6
2019-02-09T12:31:24.262Z,998.7
2019-02-09T12:32:25.946Z,998.6
2019-02-09T12:33:27.348Z,998.7
2019-02-09T12:34:28.752Z,998.5
2019-02-09T12:35:30.382Z,998.4
2019-02-09T12:36:31.798Z,998.6
2019-02-09T12:37:33.197Z,998.6
2019-02-09T12:38:34.705Z,998.6
2019-02-09T12:39:36.105Z,998.6
2019-02-09T12:40:37.515Z,998.6
2019-02-09T12:41:40.051Z,998.5
2019-02-09T12:42:41.452Z,998.5
2019-02-09T12:43:42.859Z,998.6
2019-02-09T12:44:44.368Z,998.6
2019-02-09T12:45:45.777Z,998.9
2019-02-09T12:46:47.659Z,998.5
2019-02-09T12:47:49.324Z,998.6
2019-02-09T12:48:50.720Z,998.6
2019-02-09T12:49:52.121Z,998.5
2019-02-09T12:50:54.059Z,998.6
2019-02-09T12:51:55.472Z,998.4
2019-02-09T12:52:57.250Z,998.5
2019-02-09T12:53:59.150Z,998.5
2019-02-09T12:55:00.551Z,998.5
2019-02-09T12:56:02.058Z,998.6
2019-02-09T12:57:03.466Z,998.6
2019-02-09T12:58:05.154Z,998.5
2019-02-09T12:59:06.547Z,998.6
2019-02-09T13:00:08.018Z,998.6
2019-02-09T13:01:10.699Z,998.5
2019-02-09T13:02:12.176Z,998.8
2019-02-09T13:03:13.594Z,998.6
2019-02-09T13:04:15.601Z,998.7
2019-02-09T13:05:17.005Z,998.7
2019-02-09T13:06:18.415Z,998.7
2019-02-09T13:07:19.951Z,998.8
2019-02-09T13:08:21.390Z,999.0
2019-02-09T13:09:22.794Z,998.9
2019-02-09T13:10:24.482Z,998.9
2019-02-09T13:11:25.883Z,998.9
2019-02-09T13:12:27.568Z,998.9